Time;durP1;ratioP1;P1;durP2;ratioP2;P2;SDS_P1;SDS_P2;PMS_P1;PMS_P2;Temp;Humidity;BMP_temperature;BMP_pressure;BME280_temperature;BME280_humidity;BME280_pressure;Samples;Min_cycle;Max_cycle;Signal;HPM_P1;HPM_P2
2023/01/03 00:01:43;;;;;;;6.43;2.73;;;11.20;99.90;;;;;;6190157;23;20396;-86
2023/01/03 00:04:11;;;;;;;4.80;2.70;;;11.20;99.90;;;;;;6189625;23;20754;-87
2023/01/03 00:06:41;;;;;;;4.50;2.70;;;11.20;99.90;;;;;;6175462;23;20666;-84
2023/01/03 00:09:10;;;;;;;4.13;2.77;;;11.10;99.90;;;;;;6179063;23;20414;-85
2023/01/03 00:14:28;;;;;;;3.80;2.47;;;10.90;99.90;;;;;;6204570;23;20440;-85
2023/01/03 00:16:57;;;;;;;3.67;2.63;;;10.80;99.90;;;;;;6205160;23;20413;-86
2023/01/03 00:19:30;;;;;;;3.50;2.10;;;11.00;99.90;;;;;;6205363;23;20414;-86
2023/01/03 00:21:57;;;;;;;2.90;2.60;;;11.10;99.90;;;;;;6206543;23;20432;-88
2023/01/03 00:24:24;;;;;;;3.70;2.53;;;11.00;99.90;;;;;;6203639;23;20443;-85
2023/01/03 00:26:50;;;;;;;2.83;2.40;;;10.90;99.90;;;;;;6180318;23;20420;-85
2023/01/03 00:29:18;;;;;;;2.80;2.60;;;10.70;99.90;;;;;;6206417;23;21139;-88
2023/01/03 00:31:44;;;;;;;3.90;3.37;;;10.60;99.90;;;;;;6204738;23;20465;-87
2023/01/03 00:34:11;;;;;;;6.23;2.40;;;10.80;99.90;;;;;;6179401;23;20492;-88
2023/01/03 00:36:38;;;;;;;3.73;2.97;;;10.90;99.90;;;;;;6179810;23;20425;-85
2023/01/03 00:39:05;;;;;;;3.43;2.67;;;11.10;99.90;;;;;;6176947;23;20429;-86
2023/01/03 00:41:33;;;;;;;3.10;2.80;;;11.20;99.90;;;;;;6163812;23;20902;-88
2023/01/03 00:44:00;;;;;;;5.07;3.70;;;11.20;99.90;;;;;;6164230;23;20953;-87
2023/01/03 00:46:27;;;;;;;3.60;3.30;;;11.10;99.90;;;;;;6190103;23;20390;-86
2023/01/03 00:48:54;;;;;;;5.80;2.37;;;11.10;99.90;;;;;;6164271;23;20406;-86
2023/01/03 00:51:26;;;;;;;3.60;2.40;;;11.00;99.90;;;;;;6163705;23;20501;-87
2023/01/03 00:53:55;;;;;;;7.13;2.60;;;10.70;99.90;;;;;;6189705;23;20512;-85
2023/01/03 00:56:31;;;;;;;4.10;2.40;;;10.80;99.90;;;;;;6171181;23;20409;-87
2023/01/03 00:58:58;;;;;;;3.60;2.50;;;11.00;99.90;;;;;;6180805;23;20413;-87
2023/01/03 01:01:29;;;;;;;4.00;2.83;;;11.00;99.90;;;;;;6205595;23;20464;-85
2023/01/03 01:03:59;;;;;;;3.67;2.60;;;11.00;99.90;;;;;;6206114;23;20651;-88
2023/01/03 01:06:40;;;;;;;4.63;2.40;;;11.00;99.90;;;;;;6179951;23;20443;-84
2023/01/03 01:09:11;;;;;;;3.73;2.50;;;11.10;99.90;;;;;;6179518;23;20402;-86
2023/01/03 01:11:38;;;;;;;4.13;2.50;;;11.00;99.90;;;;;;6179481;23;20497;-86
2023/01/03 01:14:18;;;;;;;3.53;2.67;;;10.90;99.90;;;;;;6208019;23;20457;-84
2023/01/03 01:16:55;;;;;;;2.63;2.43;;;11.00;99.90;;;;;;6179015;23;20410;-86
2023/01/03 01:19:28;;;;;;;5.33;2.97;;;10.90;99.90;;;;;;6179955;23;20398;-86
2023/01/03 01:21:56;;;;;;;4.23;2.63;;;10.80;99.90;;;;;;6191814;23;20422;-86
2023/01/03 01:24:24;;;;;;;4.30;2.40;;;10.90;99.90;;;;;;6164034;23;20453;-87
2023/01/03 01:26:54;;;;;;;2.40;2.20;;;10.80;99.90;;;;;;6190660;23;20460;-86
2023/01/03 01:29:24;;;;;;;3.13;2.17;;;10.70;99.90;;;;;;6189393;23;20432;-87
2023/01/03 01:31:52;;;;;;;3.10;2.90;;;10.70;99.90;;;;;;6188734;23;20873;-86
2023/01/03 01:34:20;;;;;;;3.47;2.53;;;10.60;99.90;;;;;;6165954;23;20532;-87
2023/01/03 01:36:48;;;;;;;4.00;2.53;;;10.50;99.90;;;;;;6200222;23;20414;-87
2023/01/03 01:39:20;;;;;;;3.20;2.53;;;10.50;99.90;;;;;;6159808;23;20418;-85
2023/01/03 01:44:57;;;;;;;3.70;2.30;;;10.30;99.90;;;;;;6190710;23;20477;-86
2023/01/03 01:47:53;;;;;;;2.50;1.73;;;10.30;99.90;;;;;;6188066;23;20410;-88
2023/01/03 01:50:28;;;;;;;2.00;1.80;;;10.10;99.90;;;;;;6188254;23;21047;-87
2023/01/03 01:53:08;;;;;;;2.30;2.10;;;10.00;99.90;;;;;;6161834;23;20508;-88
2023/01/03 01:56:02;;;;;;;3.93;1.83;;;9.90;99.90;;;;;;6160222;23;20464;-87
2023/01/03 01:58:35;;;;;;;2.20;1.77;;;9.90;99.90;;;;;;6160871;23;20410;-86
2023/01/03 02:01:09;;;;;;;3.87;2.00;;;9.90;99.90;;;;;;6193278;23;20525;-87
2023/01/03 02:03:37;;;;;;;1.93;1.63;;;9.90;99.90;;;;;;6163220;23;20442;-87
2023/01/03 02:06:06;;;;;;;2.67;2.03;;;9.80;99.90;;;;;;6184658;23;20508;-89
2023/01/03 02:08:34;;;;;;;4.50;1.93;;;9.80;99.90;;;;;;6178548;23;20494;-88
2023/01/03 02:11:26;;;;;;;2.60;2.03;;;9.80;99.90;;;;;;6168740;23;20417;-89
2023/01/03 02:14:07;;;;;;;4.17;2.20;;;9.80;99.90;;;;;;6163363;23;20464;-85
2023/01/03 02:17:06;;;;;;;2.30;1.73;;;9.80;99.90;;;;;;6162044;23;20413;-86
2023/01/03 02:20:01;;;;;;;3.77;2.20;;;9.80;99.90;;;;;;6163241;23;20405;-86
2023/01/03 02:22:56;;;;;;;3.77;2.23;;;9.80;99.90;;;;;;6163295;23;20422;-86
2023/01/03 02:25:50;;;;;;;2.33;2.13;;;9.90;99.90;;;;;;6163955;23;20445;-86
2023/01/03 02:28:42;;;;;;;3.40;2.03;;;10.00;99.90;;;;;;6180912;23;20410;-88
2023/01/03 02:31:15;;;;;;;2.80;2.40;;;10.10;99.90;;;;;;6185053;23;20422;-88
2023/01/03 02:34:03;;;;;;;5.53;2.37;;;10.20;99.90;;;;;;6185036;23;20444;-87
2023/01/03 02:36:46;;;;;;;2.03;1.80;;;10.30;99.90;;;;;;6186074;23;20386;-88
2023/01/03 02:39:23;;;;;;;7.00;2.43;;;10.40;99.90;;;;;;6177589;23;20414;-87
2023/01/03 02:42:56;;;;;;;2.20;2.00;;;10.30;99.90;;;;;;6163113;23;20850;-88
2023/01/03 02:45:14;;;;;;;3.33;2.00;;;10.20;99.90;;;;;;6189655;23;20453;-86
2023/01/03 02:48:15;;;;;;;4.27;2.30;;;10.20;99.90;;;;;;6158474;23;20420;-86
2023/01/03 02:50:48;;;;;;;3.23;1.67;;;10.30;99.90;;;;;;6168052;23;20504;-86
2023/01/03 02:53:25;;;;;;;3.67;2.07;;;10.00;99.90;;;;;;6159396;23;20911;-86
2023/01/03 02:55:55;;;;;;;3.67;1.90;;;9.90;99.90;;;;;;6158527;23;20894;-86
2023/01/03 02:58:25;;;;;;;2.63;1.87;;;9.80;99.90;;;;;;6184694;23;20421;-85
2023/01/03 03:00:54;;;;;;;3.70;2.03;;;10.00;99.90;;;;;;6184595;23;20401;-85
2023/01/03 03:03:27;;;;;;;3.37;1.70;;;9.90;99.90;;;;;;6184783;23;20468;-86
2023/01/03 03:06:19;;;;;;;3.43;1.97;;;9.80;99.90;;;;;;6159313;23;20401;-87
2023/01/03 03:08:48;;;;;;;3.77;1.87;;;10.00;99.90;;;;;;6161163;23;20432;-84
2023/01/03 03:14:28;;;;;;;3.60;1.70;;;9.80;99.90;;;;;;6195257;23;20498;-85
2023/01/03 03:17:10;;;;;;;5.37;1.90;;;9.70;99.90;;;;;;6166526;23;20409;-86
2023/01/03 03:25:29;;;;;;;3.10;2.13;;;9.60;99.90;;;;;;6195365;23;20780;-85
2023/01/03 03:31:00;;;;;;;3.60;2.17;;;9.70;99.90;;;;;;6203899;23;20412;-84
2023/01/03 03:33:49;;;;;;;2.43;2.20;;;9.90;99.90;;;;;;6202801;23;20374;-84
2023/01/03 03:36:35;;;;;;;5.77;2.40;;;10.10;99.90;;;;;;6208070;23;20394;-85
2023/01/03 03:44:59;;;;;;;6.03;2.90;;;10.20;99.90;;;;;;6181353;23;20429;-86
2023/01/03 03:45:14;;;;;;;5.53;2.60;;;9.90;99.90;;;;;;6195575;23;20834;-85
2023/01/03 03:47:51;;;;;;;6.03;2.67;;;9.80;99.90;;;;;;6168261;23;20460;-85
2023/01/03 03:50:33;;;;;;;4.77;3.53;;;9.80;99.90;;;;;;6168383;23;20406;-85
2023/01/03 03:53:08;;;;;;;4.33;2.50;;;10.00;99.90;;;;;;6187962;23;20409;-85
2023/01/03 03:56:11;;;;;;;3.40;2.30;;;10.20;99.90;;;;;;6194110;23;20445;-85
2023/01/03 03:58:49;;;;;;;9.30;3.10;;;10.20;99.90;;;;;;6165834;23;20406;-87
2023/01/03 04:01:19;;;;;;;4.33;2.40;;;10.00;99.90;;;;;;6164420;23;20460;-86
2023/01/03 04:03:51;;;;;;;5.50;2.40;;;9.90;99.90;;;;;;6162742;23;20430;-87
2023/01/03 04:06:38;;;;;;;3.37;2.63;;;9.80;99.90;;;;;;6190313;23;20420;-85
2023/01/03 04:09:07;;;;;;;4.20;2.30;;;10.20;99.90;;;;;;6135156;23;20406;-86
2023/01/03 04:11:37;;;;;;;3.53;2.60;;;10.20;99.90;;;;;;6189991;23;20723;-86
2023/01/03 04:14:08;;;;;;;3.70;2.20;;;10.00;99.90;;;;;;6169919;23;20422;-88
2023/01/03 04:16:36;;;;;;;3.07;2.27;;;9.80;99.90;;;;;;6157543;23;20410;-86
2023/01/03 04:19:06;;;;;;;2.27;2.07;;;9.80;99.90;;;;;;6184613;23;20410;-87
2023/01/03 04:21:33;;;;;;;2.83;2.17;;;9.80;99.90;;;;;;6184311;23;20425;-85
2023/01/03 04:23:59;;;;;;;3.77;3.30;;;9.70;99.90;;;;;;6166025;23;20440;-87
2023/01/03 04:26:26;;;;;;;3.40;2.10;;;9.70;99.90;;;;;;6166663;23;20833;-87
2023/01/03 04:28:55;;;;;;;3.30;2.00;;;9.80;99.90;;;;;;6168647;23;20394;-84
2023/01/03 04:31:24;;;;;;;4.53;2.50;;;9.80;99.90;;;;;;6168564;23;20410;-84
2023/01/03 04:33:52;;;;;;;2.77;2.57;;;9.80;99.90;;;;;;6169109;23;20422;-84
2023/01/03 04:36:20;;;;;;;3.33;2.50;;;9.70;99.90;;;;;;6164394;22;20588;-88
2023/01/03 04:38:47;;;;;;;6.73;3.07;;;9.70;99.90;;;;;;6177561;23;20792;-85
2023/01/03 04:41:15;;;;;;;2.70;2.33;;;9.80;99.90;;;;;;6195992;23;20928;-85
2023/01/03 04:44:00;;;;;;;6.73;2.33;;;9.90;99.90;;;;;;6170550;23;20437;-87
2023/01/03 04:46:36;;;;;;;5.47;2.70;;;10.00;99.90;;;;;;6168044;23;20409;-87
2023/01/03 04:49:06;;;;;;;2.80;2.00;;;10.10;99.90;;;;;;6193732;23;20926;-84
2023/01/03 04:51:34;;;;;;;4.43;1.93;;;10.10;99.90;;;;;;6194244;23;20433;-86
2023/01/03 04:54:07;;;;;;;3.03;1.97;;;10.30;99.90;;;;;;6166291;23;20889;-86
2023/01/03 04:56:39;;;;;;;2.93;2.00;;;10.40;99.90;;;;;;6192899;23;20473;-87
2023/01/03 04:59:09;;;;;;;8.20;2.67;;;10.40;99.90;;;;;;6195444;23;20406;-85
2023/01/03 05:01:36;;;;;;;2.80;2.40;;;10.30;99.90;;;;;;6193710;23;20414;-86
2023/01/03 05:04:04;;;;;;;10.37;2.60;;;10.30;99.90;;;;;;6165847;23;20426;-86
2023/01/03 05:06:31;;;;;;;6.83;2.03;;;10.30;99.90;;;;;;6141833;23;20412;-86
2023/01/03 05:08:59;;;;;;;3.80;2.20;;;10.10;99.90;;;;;;6192251;23;20413;-86
2023/01/03 05:11:41;;;;;;;2.20;2.00;;;9.90;99.90;;;;;;6193700;23;20436;-87
2023/01/03 05:14:08;;;;;;;5.73;2.10;;;10.10;99.90;;;;;;6190771;23;20414;-86
2023/01/03 05:16:40;;;;;;;3.17;2.47;;;10.20;99.90;;;;;;6187595;23;20405;-84
2023/01/03 05:19:07;;;;;;;5.33;2.20;;;10.00;99.90;;;;;;6161727;23;20402;-87
2023/01/03 05:25:48;;;;;;;1.90;1.80;;;10.00;99.90;;;;;;6186923;23;20430;-85
2023/01/03 05:27:21;;;;;;;6.07;2.80;;;10.30;99.90;;;;;;6186221;23;20416;-85
2023/01/03 05:29:50;;;;;;;2.67;2.20;;;10.50;99.90;;;;;;6185890;23;20414;-85
2023/01/03 05:32:17;;;;;;;3.50;2.70;;;10.40;99.90;;;;;;6187246;23;20410;-85
2023/01/03 05:34:44;;;;;;;4.13;2.73;;;10.20;99.90;;;;;;6160810;23;20537;-85
2023/01/03 05:37:11;;;;;;;3.57;2.47;;;10.20;99.90;;;;;;6158610;23;20418;-86
2023/01/03 05:39:38;;;;;;;10.13;2.87;;;10.30;99.90;;;;;;6186668;23;20512;-85
2023/01/03 05:42:04;;;;;;;4.40;3.17;;;10.20;99.90;;;;;;6159205;23;20508;-84
2023/01/03 05:44:33;;;;;;;4.10;2.80;;;10.00;99.90;;;;;;6182497;23;20456;-84
2023/01/03 05:47:02;;;;;;;4.40;3.40;;;10.00;99.90;;;;;;6158004;23;20409;-84
2023/01/03 05:49:29;;;;;;;5.20;3.13;;;10.10;99.90;;;;;;6185711;23;20406;-85
2023/01/03 05:51:58;;;;;;;4.77;3.73;;;10.00;99.90;;;;;;6160049;23;20917;-86
2023/01/03 05:54:26;;;;;;;4.10;3.20;;;10.00;99.90;;;;;;6160355;23;20434;-86
2023/01/03 05:56:53;;;;;;;4.00;2.80;;;10.00;99.90;;;;;;6185773;23;20417;-84
2023/01/03 05:59:21;;;;;;;3.90;2.60;;;9.90;99.90;;;;;;6160240;23;20417;-85
2023/01/03 06:01:50;;;;;;;5.57;3.10;;;9.90;99.90;;;;;;6187120;23;20406;-84
2023/01/03 06:04:21;;;;;;;7.60;3.00;;;9.90;99.90;;;;;;6157291;23;20469;-84
2023/01/03 06:06:48;;;;;;;2.40;2.23;;;9.90;99.90;;;;;;6184053;23;20421;-85
2023/01/03 06:09:15;;;;;;;2.83;2.50;;;9.90;99.90;;;;;;6185295;23;20414;-83
2023/01/03 06:11:44;;;;;;;4.07;2.60;;;9.80;99.90;;;;;;6186591;23;20409;-84
2023/01/03 06:14:12;;;;;;;5.23;2.93;;;9.90;99.90;;;;;;6183252;23;20517;-84
2023/01/03 06:19:28;;;;;;;5.10;2.70;;;9.70;99.90;;;;;;6186768;23;20992;-87
2023/01/03 06:21:55;;;;;;;4.90;2.90;;;9.70;99.90;;;;;;6159195;23;20414;-86
2023/01/03 06:24:25;;;;;;;3.40;3.10;;;9.60;99.90;;;;;;6158871;23;20437;-84
2023/01/03 06:26:56;;;;;;;4.37;2.20;;;9.60;99.90;;;;;;6159968;23;20413;-86
2023/01/03 06:29:24;;;;;;;8.83;2.80;;;9.60;99.90;;;;;;6187137;23;20402;-86
2023/01/03 06:31:52;;;;;;;5.13;3.23;;;9.70;99.90;;;;;;6185363;23;20414;-84
2023/01/03 06:34:19;;;;;;;6.00;2.73;;;9.70;99.90;;;;;;6184670;23;20433;-84
2023/01/03 06:36:49;;;;;;;3.43;2.40;;;9.70;99.90;;;;;;6185745;23;20474;-85
2023/01/03 06:39:16;;;;;;;6.37;2.93;;;9.50;99.90;;;;;;6185662;23;20410;-84
2023/01/03 06:41:43;;;;;;;5.60;3.07;;;9.50;99.90;;;;;;6185891;23;20492;-85
2023/01/03 06:44:10;;;;;;;3.43;2.43;;;9.70;99.90;;;;;;6161967;23;20429;-86
2023/01/03 06:55:01;;;;;;;3.50;2.60;;;9.80;99.90;;;;;;6187709;23;20442;-83
2023/01/03 06:57:34;;;;;;;3.30;2.70;;;9.90;99.90;;;;;;6162443;23;20448;-86
2023/01/03 07:00:01;;;;;;;3.73;3.00;;;9.90;99.90;;;;;;6163739;23;20409;-86
2023/01/03 07:02:28;;;;;;;4.50;2.70;;;9.70;99.90;;;;;;6204428;23;20424;-86
2023/01/03 07:04:56;;;;;;;4.80;3.30;;;9.70;99.90;;;;;;6181361;23;20468;-87
2023/01/03 07:07:23;;;;;;;4.07;2.90;;;9.80;99.90;;;;;;6191632;23;20420;-86
2023/01/03 07:09:52;;;;;;;3.67;3.33;;;9.80;99.90;;;;;;6190615;23;20410;-86
2023/01/03 07:15:05;;;;;;;4.80;3.27;;;9.80;99.90;;;;;;6187939;23;20526;-86
2023/01/03 07:17:31;;;;;;;4.20;3.13;;;9.80;99.90;;;;;;6185154;23;20409;-86
2023/01/03 07:19:58;;;;;;;2.83;2.33;;;9.80;99.90;;;;;;6190067;23;20807;-86
2023/01/03 07:22:27;;;;;;;2.77;2.40;;;9.80;99.90;;;;;;6167877;23;20530;-86
2023/01/03 07:24:54;;;;;;;3.30;3.00;;;9.70;99.90;;;;;;6194449;23;20445;-88
2023/01/03 07:27:21;;;;;;;3.10;2.70;;;9.60;99.90;;;;;;6167918;23;20406;-86
2023/01/03 07:29:48;;;;;;;4.90;3.20;;;9.60;99.90;;;;;;6167784;23;20914;-86
2023/01/03 07:32:15;;;;;;;3.47;2.80;;;9.70;99.90;;;;;;6166622;23;20398;-87
2023/01/03 07:34:42;;;;;;;3.83;3.43;;;9.70;99.90;;;;;;6192398;23;20435;-84
2023/01/03 07:37:09;;;;;;;3.20;2.80;;;9.60;99.90;;;;;;6192684;23;20525;-84
2023/01/03 07:39:36;;;;;;;3.80;2.70;;;9.70;99.90;;;;;;6190638;23;20414;-84
2023/01/03 07:44:52;;;;;;;3.70;3.10;;;9.50;99.90;;;;;;6206507;23;20505;-85
2023/01/03 07:47:18;;;;;;;2.83;2.63;;;9.70;99.90;;;;;;6209537;22;20426;-87
2023/01/03 07:49:45;;;;;;;3.43;2.87;;;9.90;99.90;;;;;;6207850;23;20444;-85
2023/01/03 07:52:12;;;;;;;2.73;2.53;;;9.80;99.90;;;;;;6177480;23;20410;-86
2023/01/03 07:54:39;;;;;;;2.10;1.90;;;10.00;99.90;;;;;;6192042;23;20473;-86
2023/01/03 07:57:05;;;;;;;4.33;2.33;;;9.90;99.90;;;;;;6191899;23;20418;-86
2023/01/03 07:59:32;;;;;;;5.50;2.80;;;9.90;99.90;;;;;;6164662;23;20414;-86
2023/01/03 08:02:00;;;;;;;2.43;2.00;;;9.80;99.90;;;;;;6165475;23;20421;-85
2023/01/03 08:04:30;;;;;;;5.10;2.40;;;9.70;99.90;;;;;;6189325;23;20445;-86
2023/01/03 08:07:00;;;;;;;7.53;2.97;;;9.70;99.90;;;;;;6162160;23;21010;-86
2023/01/03 08:15:00;;;;;;;2.80;2.43;;;9.70;99.90;;;;;;6188540;23;20513;-87
2023/01/03 08:17:31;;;;;;;2.70;2.50;;;9.80;99.90;;;;;;6161163;23;20402;-87
2023/01/03 08:20:01;;;;;;;2.70;2.50;;;9.80;99.90;;;;;;6161762;23;20405;-86
2023/01/03 08:22:28;;;;;;;3.23;2.33;;;9.80;99.90;;;;;;6159955;23;20402;-88
2023/01/03 08:24:55;;;;;;;2.60;2.30;;;9.80;99.90;;;;;;6160184;23;20430;-86
2023/01/03 08:27:22;;;;;;;3.47;2.70;;;9.70;99.90;;;;;;6160245;23;20788;-86
2023/01/03 08:29:52;;;;;;;4.63;2.77;;;9.70;99.90;;;;;;6160639;23;20414;-88
2023/01/03 08:32:21;;;;;;;3.10;2.57;;;9.80;99.90;;;;;;6159887;23;20489;-85
2023/01/03 08:34:49;;;;;;;2.90;2.70;;;9.70;99.90;;;;;;6159996;23;20432;-86
2023/01/03 08:37:17;;;;;;;3.70;3.00;;;9.70;99.90;;;;;;6160273;23;20512;-86
2023/01/03 08:39:52;;;;;;;3.20;2.90;;;9.70;99.90;;;;;;6160959;23;20445;-85
2023/01/03 08:42:22;;;;;;;3.67;2.90;;;9.80;99.90;;;;;;6188023;23;20402;-86
2023/01/03 08:44:58;;;;;;;5.63;3.23;;;9.80;99.90;;;;;;6161698;23;20434;-85
2023/01/03 08:47:28;;;;;;;3.87;3.13;;;9.90;99.90;;;;;;6184315;23;20394;-86
2023/01/03 08:49:57;;;;;;;3.03;2.70;;;10.00;99.90;;;;;;6184669;23;20409;-86
2023/01/03 08:52:24;;;;;;;6.23;3.40;;;9.90;99.90;;;;;;6184525;23;20533;-85
2023/01/03 08:54:56;;;;;;;2.70;2.47;;;9.90;99.90;;;;;;6186204;23;20434;-84
2023/01/03 08:57:23;;;;;;;3.43;2.53;;;9.90;99.90;;;;;;6157764;23;20496;-85
2023/01/03 08:59:50;;;;;;;2.90;2.60;;;9.80;99.90;;;;;;6172892;23;20406;-86
2023/01/03 09:02:16;;;;;;;4.87;2.87;;;9.90;99.90;;;;;;6181384;23;20404;-87
2023/01/03 09:04:43;;;;;;;5.30;3.23;;;9.90;99.90;;;;;;6212310;22;20424;-88
2023/01/03 09:07:11;;;;;;;2.93;2.70;;;9.90;99.90;;;;;;6186937;23;20434;-87
2023/01/03 09:09:40;;;;;;;4.20;2.63;;;9.90;99.90;;;;;;6186740;23;20401;-88
2023/01/03 09:12:07;;;;;;;3.73;2.73;;;9.90;99.90;;;;;;6175715;23;20417;-86
2023/01/03 09:14:34;;;;;;;3.00;2.47;;;9.80;99.90;;;;;;6190882;23;20494;-85
2023/01/03 09:17:01;;;;;;;4.53;2.57;;;10.00;99.90;;;;;;6164067;23;20406;-86
2023/01/03 09:19:31;;;;;;;4.93;2.70;;;10.10;99.90;;;;;;6165298;23;20406;-85
2023/01/03 09:21:58;;;;;;;4.73;3.30;;;10.20;99.90;;;;;;6163542;23;20477;-87
2023/01/03 09:24:27;;;;;;;5.37;3.53;;;10.30;99.90;;;;;;6186624;23;20469;-86
2023/01/03 09:26:54;;;;;;;3.47;3.17;;;10.30;99.90;;;;;;6188664;23;20442;-84
2023/01/03 09:29:22;;;;;;;4.20;2.97;;;10.40;99.90;;;;;;6172114;23;20390;-85
2023/01/03 09:31:49;;;;;;;5.90;4.00;;;10.30;99.90;;;;;;6183830;23;20414;-87
2023/01/03 09:34:17;;;;;;;4.20;2.90;;;10.40;99.90;;;;;;6169733;23;20444;-87
2023/01/03 09:36:44;;;;;;;5.13;2.87;;;10.50;99.90;;;;;;6191375;23;20460;-86
2023/01/03 09:39:11;;;;;;;4.20;3.33;;;10.50;99.90;;;;;;6164664;23;20733;-87
2023/01/03 09:41:42;;;;;;;5.30;2.83;;;10.50;99.90;;;;;;6164422;23;20441;-87
2023/01/03 09:44:11;;;;;;;4.63;2.80;;;10.60;99.90;;;;;;6190423;23;20501;-87
2023/01/03 09:46:41;;;;;;;4.30;2.83;;;10.60;99.90;;;;;;6193379;23;20437;-87
2023/01/03 09:49:12;;;;;;;4.57;2.53;;;10.80;99.90;;;;;;6168523;23;20404;-85
2023/01/03 10:03:43;;;;;;;4.10;2.80;;;10.80;99.90;;;;;;6192748;23;20414;-86
2023/01/03 10:06:22;;;;;;;3.30;3.00;;;10.90;99.90;;;;;;6169668;23;20449;-87
2023/01/03 10:09:20;;;;;;;4.70;2.67;;;10.90;99.90;;;;;;6192515;23;20408;-85
2023/01/03 10:12:14;;;;;;;4.17;2.73;;;11.00;99.90;;;;;;6193917;23;20502;-87
2023/01/03 10:14:55;;;;;;;2.97;2.50;;;11.20;99.90;;;;;;6188317;23;21032;-85
2023/01/03 10:17:41;;;;;;;3.63;3.00;;;11.30;99.90;;;;;;6164380;23;20418;-87
2023/01/03 10:20:28;;;;;;;3.07;2.70;;;11.40;99.50;;;;;;6202098;23;20528;-87
2023/01/03 10:23:06;;;;;;;3.30;2.70;;;11.40;99.60;;;;;;6205607;23;20382;-88
2023/01/03 10:25:40;;;;;;;3.47;2.97;;;11.50;99.50;;;;;;6206794;22;20809;-87
2023/01/03 10:28:24;;;;;;;2.70;2.50;;;11.30;99.60;;;;;;6204347;23;20425;-86
2023/01/03 10:31:11;;;;;;;2.87;2.67;;;11.60;99.50;;;;;;6189583;23;20516;-85
2023/01/03 10:33:44;;;;;;;4.63;3.20;;;11.70;99.30;;;;;;6186511;23;20421;-85
2023/01/03 10:36:19;;;;;;;4.27;2.90;;;11.90;99.00;;;;;;6187562;23;20441;-87
2023/01/03 10:39:08;;;;;;;3.50;2.97;;;12.00;99.00;;;;;;6161871;23;20541;-84
2023/01/03 10:41:41;;;;;;;2.70;2.30;;;12.00;99.10;;;;;;6187128;23;20466;-84
2023/01/03 10:44:32;;;;;;;3.60;2.50;;;12.00;99.00;;;;;;6186889;23;20834;-85
2023/01/03 10:47:14;;;;;;;2.60;1.90;;;12.10;99.00;;;;;;6161318;23;20444;-85
2023/01/03 10:49:45;;;;;;;2.60;1.80;;;12.20;98.70;;;;;;6185941;23;20409;-84
2023/01/03 10:52:22;;;;;;;1.63;1.50;;;12.40;98.40;;;;;;6186393;23;20449;-85
2023/01/03 10:54:53;;;;;;;1.07;0.97;;;12.40;97.50;;;;;;6188523;23;20425;-83
2023/01/03 10:57:47;;;;;;;2.93;1.00;;;12.50;96.70;;;;;;6188034;23;20410;-84
2023/01/03 11:00:36;;;;;;;3.57;1.20;;;12.50;96.60;;;;;;6190633;23;20409;-86
2023/01/03 11:03:13;;;;;;;3.10;0.97;;;12.30;96.80;;;;;;6186822;23;20479;-86
2023/01/03 11:05:43;;;;;;;1.90;1.10;;;12.40;96.90;;;;;;6159347;23;20444;-85
2023/01/03 11:08:36;;;;;;;1.63;1.50;;;12.60;96.30;;;;;;6161091;23;20489;-86
2023/01/03 11:11:31;;;;;;;4.00;1.30;;;12.60;96.00;;;;;;6175488;23;20497;-85
2023/01/03 11:14:18;;;;;;;1.07;1.03;;;12.70;96.10;;;;;;6148498;23;20458;-85
2023/01/03 11:16:58;;;;;;;1.87;1.10;;;12.70;96.10;;;;;;6189404;23;20473;-85
2023/01/03 11:19:31;;;;;;;1.40;1.00;;;12.50;95.80;;;;;;6184179;23;20433;-86
2023/01/03 11:22:15;;;;;;;2.30;1.10;;;12.40;96.40;;;;;;6159885;23;20429;-86
2023/01/03 11:25:01;;;;;;;2.13;1.03;;;12.70;96.10;;;;;;6160249;23;20473;-84
2023/01/03 11:27:57;;;;;;;2.63;1.17;;;12.70;96.10;;;;;;6185174;23;20806;-85
2023/01/03 11:30:48;;;;;;;2.73;1.20;;;13.00;95.30;;;;;;6188351;23;20471;-84
2023/01/03 11:33:34;;;;;;;1.80;0.97;;;13.10;94.50;;;;;;6191364;23;20410;-86
2023/01/03 11:36:15;;;;;;;3.83;1.37;;;13.10;94.10;;;;;;6186674;23;20456;-86
2023/01/03 11:39:14;;;;;;;1.87;1.13;;;13.00;94.20;;;;;;6189336;23;20417;-84
2023/01/03 11:41:54;;;;;;;5.20;0.87;;;13.00;94.50;;;;;;6187212;23;20476;-85
2023/01/03 11:44:46;;;;;;;5.47;1.30;;;12.90;94.50;;;;;;6186181;23;20440;-85
2023/01/03 11:47:34;;;;;;;2.17;0.73;;;12.80;94.50;;;;;;6187721;23;20507;-84
2023/01/03 11:50:26;;;;;;;1.70;0.93;;;12.80;94.60;;;;;;6185880;23;20414;-86
2023/01/03 11:53:02;;;;;;;2.00;1.20;;;13.10;94.00;;;;;;6188308;23;20406;-85
2023/01/03 11:55:47;;;;;;;1.23;1.10;;;13.00;94.00;;;;;;6189972;23;20704;-85
2023/01/03 11:58:38;;;;;;;1.33;0.90;;;13.20;93.40;;;;;;6190027;23;20413;-84
2023/01/03 12:01:41;;;;;;;2.70;0.93;;;13.30;93.10;;;;;;6203045;23;21076;-84
2023/01/03 12:04:42;;;;;;;1.73;1.00;;;13.30;93.10;;;;;;6202491;23;20440;-84
2023/01/03 12:07:16;;;;;;;2.10;1.10;;;13.40;93.10;;;;;;6201607;23;20443;-83
2023/01/03 12:10:11;;;;;;;4.10;1.27;;;13.30;93.20;;;;;;6204507;23;20413;-86
2023/01/03 12:12:56;;;;;;;0.70;0.70;;;13.10;93.20;;;;;;6199222;23;20421;-85
2023/01/03 12:15:29;;;;;;;1.17;1.00;;;13.10;93.20;;;;;;6193421;23;20786;-84
2023/01/03 12:18:02;;;;;;;1.77;0.83;;;13.00;93.40;;;;;;6167062;23;20406;-84
2023/01/03 12:20:36;;;;;;;3.23;1.40;;;13.10;93.60;;;;;;6191831;23;20431;-85
2023/01/03 12:23:21;;;;;;;1.33;1.23;;;12.80;93.70;;;;;;6167421;23;20453;-84
2023/01/03 12:25:57;;;;;;;2.43;0.90;;;13.20;93.30;;;;;;6191605;23;20440;-85
2023/01/03 12:28:48;;;;;;;1.17;0.77;;;13.20;93.30;;;;;;6189412;23;20413;-84
2023/01/03 12:31:38;;;;;;;1.43;0.97;;;13.00;93.50;;;;;;6187802;23;20416;-86
2023/01/03 12:34:31;;;;;;;4.20;1.20;;;12.80;93.80;;;;;;6169176;23;20418;-86
2023/01/03 12:37:05;;;;;;;2.10;0.93;;;13.00;93.30;;;;;;6206055;23;20426;-87
2023/01/03 12:39:55;;;;;;;0.93;0.70;;;13.20;93.00;;;;;;6206970;23;20409;-86
2023/01/03 12:42:28;;;;;;;1.30;1.07;;;13.20;93.00;;;;;;6179009;23;20437;-88
2023/01/03 12:45:26;;;;;;;1.27;0.80;;;13.10;93.30;;;;;;6208760;23;20425;-86
2023/01/03 12:48:20;;;;;;;2.43;1.07;;;13.00;93.30;;;;;;6201507;23;20441;-88
2023/01/03 12:50:50;;;;;;;2.10;0.73;;;13.30;93.30;;;;;;6187506;23;20406;-84
2023/01/03 12:54:04;;;;;;;2.13;1.50;;;13.00;93.20;;;;;;6191484;23;20480;-84
2023/01/03 12:56:56;;;;;;;1.53;1.10;;;12.90;93.70;;;;;;6140179;23;20505;-85
2023/01/03 12:59:52;;;;;;;2.20;1.20;;;12.80;93.90;;;;;;6188206;23;20410;-84
2023/01/03 13:02:58;;;;;;;1.60;1.50;;;12.80;93.90;;;;;;6176387;23;20418;-85
2023/01/03 13:05:41;;;;;;;3.43;0.80;;;12.60;94.20;;;;;;6175206;23;20441;-83
2023/01/03 13:08:21;;;;;;;1.60;0.77;;;12.70;94.30;;;;;;6161495;23;20438;-84
2023/01/03 13:10:55;;;;;;;1.40;1.30;;;12.60;93.90;;;;;;6189358;23;20391;-84
2023/01/03 13:13:22;;;;;;;1.17;0.70;;;12.50;93.80;;;;;;6188735;23;20755;-85
2023/01/03 13:15:52;;;;;;;3.90;1.07;;;12.40;93.50;;;;;;6189574;23;20937;-86
2023/01/03 13:18:22;;;;;;;2.03;1.00;;;12.40;93.50;;;;;;6164216;23;20784;-84
2023/01/03 13:20:51;;;;;;;2.03;0.77;;;12.70;93.20;;;;;;6190310;23;20414;-84
2023/01/03 13:23:48;;;;;;;4.47;1.83;;;12.80;92.40;;;;;;6165029;23;20386;-85
2023/01/03 13:26:27;;;;;;;2.70;1.10;;;12.70;92.30;;;;;;6205267;23;20437;-87
2023/01/03 13:29:32;;;;;;;0.90;0.50;;;12.50;92.40;;;;;;6206793;23;20483;-85
2023/01/03 13:32:16;;;;;;;1.20;1.10;;;12.40;92.50;;;;;;6206301;23;20500;-84
2023/01/03 13:34:43;;;;;;;2.57;0.70;;;12.30;92.60;;;;;;6198201;23;20442;-85
2023/01/03 13:37:15;;;;;;;1.43;0.80;;;12.30;92.60;;;;;;6188547;23;20429;-84
2023/01/03 13:39:51;;;;;;;1.07;0.80;;;12.30;92.50;;;;;;6162695;23;20417;-85
2023/01/03 13:42:38;;;;;;;1.10;1.00;;;12.40;92.80;;;;;;6187395;23;20414;-85
2023/01/03 13:45:28;;;;;;;1.57;0.53;;;12.80;92.60;;;;;;6187418;23;20434;-85
2023/01/03 13:47:55;;;;;;;0.83;0.60;;;13.20;91.50;;;;;;6122808;23;20445;-85
2023/01/03 13:50:31;;;;;;;2.17;0.80;;;13.30;91.20;;;;;;6186712;23;20413;-85
2023/01/03 13:53:10;;;;;;;2.17;0.87;;;13.20;91.00;;;;;;6187471;23;21232;-85
2023/01/03 13:55:46;;;;;;;4.50;0.83;;;12.80;91.40;;;;;;6186496;23;20440;-85
2023/01/03 13:58:39;;;;;;;4.30;1.07;;;13.10;91.80;;;;;;6186753;23;20477;-84
2023/01/03 14:01:24;;;;;;;0.83;0.83;;;13.10;90.60;;;;;;6188177;23;20914;-86
2023/01/03 14:04:16;;;;;;;0.60;0.60;;;12.80;90.80;;;;;;6189613;23;20442;-84
2023/01/03 14:07:11;;;;;;;3.07;1.37;;;12.70;90.90;;;;;;6186818;23;21078;-85
2023/01/03 14:10:15;;;;;;;3.40;1.10;;;12.80;90.90;;;;;;6191722;23;20756;-86
2023/01/03 14:12:48;;;;;;;1.13;0.73;;;12.80;91.20;;;;;;6192216;23;20426;-85
2023/01/03 14:15:19;;;;;;;2.63;0.93;;;13.00;90.60;;;;;;6188775;23;20445;-83
2023/01/03 14:17:57;;;;;;;3.33;1.50;;;12.80;90.80;;;;;;6185750;23;20421;-84
2023/01/03 14:20:34;;;;;;;2.27;0.80;;;13.00;90.70;;;;;;6186404;23;20406;-84
2023/01/03 14:23:07;;;;;;;3.60;2.43;;;13.00;90.30;;;;;;6190722;23;20413;-83
2023/01/03 14:26:04;;;;;;;1.53;1.00;;;12.80;90.00;;;;;;6166773;23;20426;-84
2023/01/03 14:28:38;;;;;;;4.80;1.27;;;12.70;90.70;;;;;;6186864;23;20499;-84
2023/01/03 14:31:19;;;;;;;1.53;0.90;;;12.90;90.20;;;;;;6188234;23;20436;-84